createdAt,value
2018-07-08T00:00:39.798Z,98875.89
2018-07-08T00:03:10.740Z,98868.28
2018-07-08T00:05:42.974Z,98868.73
2018-07-08T00:08:13.644Z,98868.49
2018-07-08T00:10:54.516Z,98867.17
2018-07-08T00:13:25.684Z,98862.09
2018-07-08T00:15:56.866Z,98864.53
2018-07-08T00:18:28.052Z,98859.08
2018-07-08T00:20:58.940Z,98859.56
2018-07-08T00:23:30.535Z,98862.38
2018-07-08T00:26:01.820Z,98863.30
2018-07-08T00:28:32.683Z,98866.68
2018-07-08T00:31:03.522Z,98863.95
2018-07-08T00:33:34.340Z,98863.98
2018-07-08T00:36:04.946Z,98862.75
2018-07-08T00:38:35.977Z,98866.48
2018-07-08T00:41:07.088Z,98853.69
2018-07-08T00:43:38.015Z,98855.05
2018-07-08T00:46:09.175Z,98853.27
2018-07-08T00:48:41.056Z,98849.38
2018-07-08T00:51:12.280Z,98850.70
2018-07-08T00:53:42.667Z,98855.34
2018-07-08T00:56:13.594Z,98849.66
2018-07-08T00:58:44.914Z,98848.98
2018-07-08T01:01:15.909Z,98851.62
2018-07-08T01:03:46.764Z,98848.77
2018-07-08T01:06:18.167Z,98853.17
2018-07-08T01:08:50.223Z,98856.96
2018-07-08T01:11:22.085Z,98858.36
2018-07-08T01:13:53.060Z,98852.70
2018-07-08T01:16:23.329Z,98857.54
2018-07-08T01:18:54.292Z,98854.39
2018-07-08T01:21:25.183Z,98854.34
2018-07-08T01:23:56.703Z,98864.52
2018-07-08T01:26:28.583Z,98853.02
2018-07-08T01:29:00.639Z,98854.80
2018-07-08T01:31:31.610Z,98850.52
2018-07-08T01:34:03.583Z,98859.20
2018-07-08T01:36:33.997Z,98864.35
2018-07-08T01:39:05.462Z,98859.97
2018-07-08T01:41:37.209Z,98855.81
2018-07-08T01:44:08.750Z,98852.92
2018-07-08T01:46:40.160Z,98855.14
2018-07-08T01:49:11.358Z,98854.36
2018-07-08T01:51:42.780Z,98858.31
2018-07-08T01:54:13.701Z,98858.47
2018-07-08T01:56:44.631Z,98855.14
2018-07-08T01:59:15.545Z,98857.30
2018-07-08T02:01:47.820Z,98856.45
2018-07-08T02:04:18.782Z,98853.49
2018-07-08T02:06:51.405Z,98861.46
2018-07-08T02:09:23.076Z,98856.30
2018-07-08T02:11:54.114Z,98852.98
2018-07-08T02:14:25.611Z,98857.44
2018-07-08T02:16:56.677Z,98868.10
2018-07-08T02:19:27.599Z,98860.97
2018-07-08T02:21:59.239Z,98856.55
2018-07-08T02:24:30.864Z,98863.77
2018-07-08T02:27:03.722Z,98867.02
2018-07-08T02:29:35.168Z,98864.20
2018-07-08T02:32:06.549Z,98875.22
2018-07-08T02:34:37.538Z,98879.44
2018-07-08T02:37:08.391Z,98880.42
2018-07-08T02:39:39.573Z,98889.02
2018-07-08T02:42:10.494Z,98887.70
2018-07-08T02:44:41.695Z,98887.34
2018-07-08T02:47:12.763Z,98886.86
2018-07-08T02:49:43.805Z,98889.13
2018-07-08T02:52:15.067Z,98890.34
2018-07-08T02:54:46.024Z,98893.30
2018-07-08T02:57:17.344Z,98891.29
2018-07-08T02:59:48.311Z,98888.39
2018-07-08T03:02:19.127Z,98891.25
2018-07-08T03:04:50.082Z,98892.41
2018-07-08T03:07:21.071Z,98899.77
2018-07-08T03:09:52.259Z,98897.18
2018-07-08T03:12:24.205Z,98902.52
2018-07-08T03:14:55.040Z,98907.94
2018-07-08T03:17:25.825Z,98905.08
2018-07-08T03:19:57.313Z,98906.03
2018-07-08T03:22:28.737Z,98901.87
2018-07-08T03:25:00.128Z,98901.17
2018-07-08T03:27:31.037Z,98902.78
2018-07-08T03:30:01.590Z,98899.23
2018-07-08T03:32:32.312Z,98902.08
2018-07-08T03:35:03.064Z,98898.83
2018-07-08T03:37:34.020Z,98901.87
2018-07-08T03:40:05.749Z,98902.85
2018-07-08T03:42:36.852Z,98901.80
2018-07-08T03:45:07.768Z,98902.41
2018-07-08T03:47:38.637Z,98904.02
2018-07-08T03:50:09.649Z,98901.31
2018-07-08T03:52:40.734Z,98900.69
2018-07-08T03:55:11.954Z,98899.52
2018-07-08T03:57:43.996Z,98902.27
2018-07-08T04:00:14.987Z,98895.97
2018-07-08T04:02:45.907Z,98898.94
2018-07-08T04:05:17.223Z,98896.37
2018-07-08T04:07:48.036Z,98894.25
2018-07-08T04:10:19.015Z,98895.42
2018-07-08T04:12:49.907Z,98891.33
2018-07-08T04:15:21.535Z,98893.56
2018-07-08T04:17:59.022Z,98900.77
2018-07-08T04:20:30.184Z,98904.94
2018-07-08T04:23:01.048Z,98904.80
2018-07-08T04:25:32.525Z,98901.69
2018-07-08T04:28:03.701Z,98902.23
2018-07-08T04:30:35.935Z,98897.18
2018-07-08T04:33:07.112Z,98898.94
2018-07-08T04:35:37.967Z,98900.73
2018-07-08T04:38:09.040Z,98907.86
2018-07-08T04:40:40.180Z,98912.58
2018-07-08T04:43:11.143Z,98910.89
2018-07-08T04:45:42.094Z,98909.85
2018-07-08T04:48:12.952Z,98911.30
2018-07-08T04:50:43.892Z,98912.76
2018-07-08T04:53:15.126Z,98921.72
2018-07-08T04:55:47.469Z,98912.77
2018-07-08T04:58:18.858Z,98917.27
2018-07-08T05:00:49.870Z,98916.92
2018-07-08T05:03:21.006Z,98924.33
2018-07-08T05:05:51.893Z,98922.56
2018-07-08T05:08:22.679Z,98925.31
2018-07-08T05:10:53.635Z,98926.59
2018-07-08T05:13:25.423Z,98923.66
2018-07-08T05:15:56.962Z,98928.77
2018-07-08T05:18:27.605Z,98922.37
2018-07-08T05:20:58.555Z,98926.78
2018-07-08T05:23:29.615Z,98921.64
2018-07-08T05:26:00.556Z,98922.85
2018-07-08T05:28:31.460Z,98921.34
2018-07-08T05:31:02.568Z,98923.55
2018-07-08T05:33:34.314Z,98922.38
2018-07-08T05:36:05.405Z,98920.24
2018-07-08T05:38:36.349Z,98922.03
2018-07-08T05:41:07.358Z,98921.14
2018-07-08T05:43:38.028Z,98924.59
2018-07-08T05:46:08.300Z,98923.52
2018-07-08T05:48:39.231Z,98918.94
2018-07-08T05:51:10.177Z,98930.64
2018-07-08T05:53:41.689Z,98940.47
2018-07-08T05:56:12.840Z,98932.91
2018-07-08T05:58:43.990Z,98942.61
2018-07-08T06:01:15.873Z,98944.63
2018-07-08T06:03:47.034Z,98948.62
2018-07-08T06:06:18.002Z,98948.97
2018-07-08T06:08:51.988Z,98950.78
2018-07-08T06:11:24.006Z,98955.94
2018-07-08T06:13:55.141Z,98955.47
2018-07-08T06:16:26.024Z,98955.95
2018-07-08T06:18:56.980Z,98963.02
2018-07-08T06:21:28.778Z,98956.50
2018-07-08T06:24:00.085Z,98959.66
2018-07-08T06:26:30.910Z,98958.27
2018-07-08T06:29:01.935Z,98963.59
2018-07-08T06:31:32.851Z,98963.91
2018-07-08T06:34:04.661Z,98963.41
2018-07-08T06:36:35.932Z,98966.28
2018-07-08T06:39:08.786Z,98967.95
2018-07-08T06:41:39.577Z,98966.90
2018-07-08T06:44:10.443Z,98966.87
2018-07-08T06:46:41.358Z,98966.33
2018-07-08T06:49:12.353Z,98968.58
2018-07-08T06:51:43.089Z,98967.75
2018-07-08T06:54:14.033Z,98965.11
2018-07-08T06:56:46.630Z,98962.91
2018-07-08T06:59:18.007Z,98960.90
2018-07-08T07:01:49.125Z,98957.02
2018-07-08T07:04:20.164Z,98959.11
2018-07-08T07:06:51.135Z,98957.44
2018-07-08T07:09:22.604Z,98953.19
2018-07-08T07:11:53.765Z,98956.91
2018-07-08T07:14:25.409Z,98955.28
2018-07-08T07:16:56.951Z,98949.79
2018-07-08T07:19:28.415Z,98950.03
2018-07-08T07:21:59.589Z,98956.25
2018-07-08T07:24:30.820Z,98951.62
2018-07-08T07:27:02.215Z,98954.88
2018-07-08T07:29:33.363Z,98952.11
2018-07-08T07:32:05.564Z,98949.45
2018-07-08T07:34:36.990Z,98948.91
2018-07-08T07:37:08.620Z,98950.16
2018-07-08T07:39:39.945Z,98951.58
2018-07-08T07:42:10.795Z,98955.69
2018-07-08T07:44:41.833Z,98951.06
2018-07-08T07:47:13.707Z,98952.42
2018-07-08T07:49:45.828Z,98947.02
2018-07-08T07:52:17.333Z,98935.74
2018-07-08T07:54:48.594Z,98942.22
2018-07-08T07:57:19.769Z,98944.38
2018-07-08T07:59:51.104Z,98938.22
2018-07-08T08:02:25.339Z,98936.35
2018-07-08T08:04:57.988Z,98940.14
2018-07-08T08:07:31.945Z,98945.80
2018-07-08T08:10:04.754Z,98942.02
2018-07-08T08:12:35.805Z,98948.04
2018-07-08T08:15:07.495Z,98943.62
2018-07-08T08:17:38.831Z,98943.42
2018-07-08T08:20:10.224Z,98937.95
2018-07-08T08:22:43.750Z,98933.88
2018-07-08T08:25:16.148Z,98933.66
2018-07-08T08:27:48.590Z,98937.09
2018-07-08T08:30:19.881Z,98933.30
2018-07-08T08:32:51.650Z,98926.88
2018-07-08T08:35:22.774Z,98929.34
2018-07-08T08:37:56.070Z,98935.27
2018-07-08T08:40:27.630Z,98922.88
2018-07-08T08:42:59.038Z,98921.38
2018-07-08T08:45:30.714Z,98926.84
2018-07-08T08:48:01.946Z,98926.78
2018-07-08T08:50:33.284Z,98918.41
2018-07-08T08:53:05.809Z,98925.38
2018-07-08T08:55:38.224Z,98920.04
2018-07-08T08:58:10.564Z,98923.82
2018-07-08T09:00:41.905Z,98918.41
2018-07-08T09:03:13.436Z,98920.55
2018-07-08T09:05:44.601Z,98925.09
2018-07-08T09:08:17.464Z,98920.74
2018-07-08T09:10:50.160Z,98926.18
2018-07-08T09:13:29.763Z,98924.41
2018-07-08T09:16:01.502Z,98928.84
2018-07-08T09:18:33.449Z,98929.39
2018-07-08T09:21:06.407Z,98928.80
2018-07-08T09:23:38.794Z,98926.58
2018-07-08T09:26:10.010Z,98927.77
2018-07-08T09:28:41.026Z,98922.41
2018-07-08T09:31:13.965Z,98925.48
2018-07-08T09:33:45.588Z,98926.95
2018-07-08T09:36:16.224Z,98932.17
2018-07-08T09:38:47.834Z,98923.83
2018-07-08T09:41:19.764Z,98921.83
2018-07-08T09:43:51.665Z,98921.19
2018-07-08T09:46:23.049Z,98918.81
2018-07-08T09:48:54.712Z,98922.61
2018-07-08T09:51:25.429Z,98928.70
2018-07-08T09:53:56.398Z,98922.52
2018-07-08T09:56:28.087Z,98920.02
2018-07-08T09:59:00.081Z,98914.42
2018-07-08T10:01:35.566Z,98916.07
2018-07-08T10:04:07.474Z,98907.66
2018-07-08T10:06:39.219Z,98908.44
2018-07-08T10:09:13.502Z,98915.78
2018-07-08T10:11:47.494Z,98910.80
2018-07-08T10:14:19.736Z,98913.53
2018-07-08T10:16:51.264Z,98909.79
2018-07-08T10:19:22.476Z,98911.30
2018-07-08T10:21:53.952Z,98912.61
2018-07-08T10:24:25.754Z,98911.34
2018-07-08T10:28:17.889Z,98917.72
2018-07-08T10:30:49.489Z,98913.72
2018-07-08T10:33:20.867Z,98909.83
2018-07-08T10:36:03.912Z,98912.13
2018-07-08T10:38:35.961Z,98913.83
2018-07-08T10:41:07.531Z,98906.44
2018-07-08T10:43:38.559Z,98902.69
2018-07-08T10:46:09.521Z,98900.45
2018-07-08T10:48:43.639Z,98903.19
2018-07-08T10:51:14.934Z,98898.87
2018-07-08T10:53:46.701Z,98891.42
2018-07-08T10:56:18.187Z,98895.06
2018-07-08T10:58:49.430Z,98897.98
2018-07-08T11:01:20.557Z,98890.09
2018-07-08T11:03:52.576Z,98894.42
2018-07-08T11:06:23.715Z,98885.84
2018-07-08T11:08:55.580Z,98871.93
2018-07-08T11:11:27.374Z,98877.31
2018-07-08T11:13:59.402Z,98873.20
2018-07-08T11:16:30.530Z,98870.20
2018-07-08T11:19:01.388Z,98876.77
2018-07-08T11:21:32.701Z,98871.22
2018-07-08T11:24:05.454Z,98870.63
2018-07-08T11:26:36.714Z,98879.81
2018-07-08T11:29:08.894Z,98877.78
2018-07-08T11:31:40.817Z,98872.89
2018-07-08T11:34:12.543Z,98877.88
2018-07-08T11:36:46.932Z,98871.91
2018-07-08T11:39:22.708Z,98870.62
2018-07-08T11:41:56.320Z,98867.82
2018-07-08T11:44:29.724Z,98861.61
2018-07-08T11:47:01.498Z,98861.83
2018-07-08T11:49:32.748Z,98855.95
2018-07-08T11:52:06.206Z,98860.38
2018-07-08T11:54:37.567Z,98858.27
2018-07-08T11:57:10.815Z,98858.39
2018-07-08T11:59:43.558Z,98855.58
2018-07-08T12:02:14.943Z,98855.58
2018-07-08T12:04:46.386Z,98858.27
2018-07-08T12:07:17.788Z,98856.83
2018-07-08T12:09:49.715Z,98853.53
2018-07-08T12:12:21.243Z,98856.19
2018-07-08T12:14:52.976Z,98854.52
2018-07-08T12:17:25.235Z,98854.14
2018-07-08T12:19:58.828Z,98858.86
2018-07-08T12:22:37.984Z,98851.64
2018-07-08T12:25:09.427Z,98856.48
2018-07-08T12:27:40.998Z,98856.41
2018-07-08T12:30:13.468Z,98855.61
2018-07-08T12:32:44.614Z,98852.52
2018-07-08T12:35:16.344Z,98844.34
2018-07-08T12:37:47.417Z,98847.18
2018-07-08T12:40:19.441Z,98841.38
2018-07-08T12:42:53.898Z,98837.41
2018-07-08T12:45:41.624Z,98843.94
2018-07-08T12:48:14.593Z,98821.94
2018-07-08T12:50:47.117Z,98838.58
2018-07-08T12:53:19.084Z,98838.72
2018-07-08T12:55:52.094Z,98840.70
2018-07-08T12:58:24.826Z,98824.91
2018-07-08T13:00:57.615Z,98826.63
2018-07-08T13:03:29.115Z,98822.48
2018-07-08T13:05:59.814Z,98821.92
2018-07-08T13:08:31.131Z,98826.92
2018-07-08T13:11:05.314Z,98821.88
2018-07-08T13:13:38.829Z,98821.48
2018-07-08T13:16:13.979Z,98812.06
2018-07-08T13:18:48.183Z,98818.48
2018-07-08T13:21:22.549Z,98820.67
2018-07-08T13:23:55.288Z,98817.15
2018-07-08T13:26:26.909Z,98814.64
2018-07-08T13:28:59.268Z,98812.80
2018-07-08T13:31:31.914Z,98806.43
2018-07-08T13:34:03.565Z,98800.64
2018-07-08T13:36:37.537Z,98800.53
2018-07-08T13:39:10.913Z,98798.17
2018-07-08T13:41:42.459Z,98796.61
2018-07-08T13:44:13.581Z,98795.85
2018-07-08T13:46:45.292Z,98790.69
2018-07-08T13:49:16.859Z,98804.22
2018-07-08T13:51:51.389Z,98806.54
2018-07-08T13:54:23.955Z,98798.34
2018-07-08T13:56:58.324Z,98788.16
2018-07-08T13:59:30.019Z,98783.84
2018-07-08T14:02:11.632Z,98782.47
2018-07-08T14:04:43.812Z,98777.14
2018-07-08T14:07:16.477Z,98779.34
2018-07-08T14:09:51.112Z,98776.28
2018-07-08T14:12:22.330Z,98778.92
2018-07-08T14:14:55.199Z,98777.34
2018-07-08T14:17:29.781Z,98774.69
2018-07-08T14:20:05.336Z,98774.16
2018-07-08T14:22:37.015Z,98772.39
2018-07-08T14:25:08.739Z,98771.39
2018-07-08T14:27:40.415Z,98765.63
2018-07-08T14:30:12.307Z,98761.38
2018-07-08T14:32:44.204Z,98755.71
2018-07-08T14:35:14.991Z,98758.14
2018-07-08T14:37:46.738Z,98755.09
2018-07-08T14:40:17.881Z,98762.02
2018-07-08T14:42:49.074Z,98756.09
2018-07-08T14:45:21.483Z,98756.42
2018-07-08T14:47:53.460Z,98758.33
2018-07-08T14:50:25.308Z,98748.26
2018-07-08T14:52:56.273Z,98732.34
2018-07-08T14:55:27.844Z,98737.37
2018-07-08T14:57:58.818Z,98733.13
2018-07-08T15:00:30.108Z,98736.50
2018-07-08T15:03:03.404Z,98737.88
2018-07-08T15:05:35.906Z,98731.84
2018-07-08T15:08:06.693Z,98735.69
2018-07-08T15:10:37.724Z,98732.16
2018-07-08T15:13:08.846Z,98733.52
2018-07-08T15:15:39.866Z,98729.72
2018-07-08T15:18:11.526Z,98728.29
2018-07-08T15:20:43.737Z,98727.98
2018-07-08T15:23:16.127Z,98727.95
2018-07-08T15:25:47.197Z,98719.00
2018-07-08T15:28:18.682Z,98724.70
2018-07-08T15:30:51.241Z,98720.13
2018-07-08T15:33:22.312Z,98712.79
2018-07-08T15:35:54.123Z,98714.14
2018-07-08T15:38:26.713Z,98699.69
2018-07-08T15:40:59.246Z,98693.42
2018-07-08T15:43:30.648Z,98695.17
2018-07-08T15:46:02.224Z,98694.02
2018-07-08T15:48:33.710Z,98692.20
2018-07-08T15:51:04.938Z,98701.14
2018-07-08T15:53:37.646Z,98689.67
2018-07-08T15:56:09.700Z,98690.24
2018-07-08T15:58:41.660Z,98687.91
2018-07-08T16:01:12.666Z,98684.92
2018-07-08T16:03:43.927Z,98684.32
2018-07-08T16:06:15.006Z,98682.15
2018-07-08T16:08:46.940Z,98680.94
2018-07-08T16:11:18.885Z,98677.72
2018-07-08T16:13:51.924Z,98669.53
2018-07-08T16:16:23.848Z,98669.52
2018-07-08T16:18:55.183Z,98673.02
2018-07-08T16:21:26.386Z,98672.55
2018-07-08T16:23:57.716Z,98675.14
2018-07-08T16:26:29.479Z,98672.43
2018-07-08T16:29:02.024Z,98666.63
2018-07-08T16:31:34.698Z,98664.42
2018-07-08T16:34:07.818Z,98662.19
2018-07-08T16:36:39.730Z,98659.36
2018-07-08T16:39:12.290Z,98656.88
2018-07-08T16:41:44.189Z,98661.14
2018-07-08T16:44:17.645Z,98654.38
2018-07-08T16:46:49.547Z,98649.22
2018-07-08T16:49:21.343Z,98650.21
2018-07-08T16:51:52.433Z,98651.53
2018-07-08T16:54:23.770Z,98649.32
2018-07-08T16:56:55.518Z,98646.70
2018-07-08T16:59:27.275Z,98646.14
2018-07-08T17:01:58.374Z,98642.87
2018-07-08T17:04:29.594Z,98639.38
2018-07-08T17:07:01.684Z,98645.03
2018-07-08T17:09:32.966Z,98642.16
2018-07-08T17:12:04.634Z,98637.45
2018-07-08T17:14:36.614Z,98636.95
2018-07-08T17:17:08.817Z,98641.03
2018-07-08T17:19:40.038Z,98639.30
2018-07-08T17:22:11.974Z,98635.31
2018-07-08T17:24:44.226Z,98631.00
2018-07-08T17:27:16.094Z,98637.91
2018-07-08T17:29:48.852Z,98631.89
2018-07-08T17:32:21.032Z,98635.84
2018-07-08T17:34:52.769Z,98638.03
2018-07-08T17:37:24.044Z,98636.95
2018-07-08T17:39:55.271Z,98640.67
2018-07-08T17:42:30.088Z,98643.68
2018-07-08T17:45:02.541Z,98638.42
2018-07-08T17:47:35.061Z,98635.25
2018-07-08T17:50:07.814Z,98633.56
2018-07-08T17:52:39.445Z,98632.27
2018-07-08T17:55:11.079Z,98619.83
2018-07-08T17:57:43.779Z,98620.98
2018-07-08T18:00:16.202Z,98618.70
2018-07-08T18:02:48.837Z,98619.06
2018-07-08T18:05:21.271Z,98619.06
2018-07-08T18:07:58.382Z,98621.87
2018-07-08T18:10:31.973Z,98634.72
2018-07-08T18:13:04.494Z,98633.97
2018-07-08T18:15:37.918Z,98639.06
2018-07-08T18:18:09.726Z,98645.95
2018-07-08T18:20:41.709Z,98642.47
2018-07-08T18:23:13.163Z,98652.08
2018-07-08T18:25:44.982Z,98657.73
2018-07-08T18:28:17.418Z,98655.24
2018-07-08T18:30:50.299Z,98661.66
2018-07-08T18:33:22.505Z,98660.52
2018-07-08T18:35:55.857Z,98667.33
2018-07-08T18:38:28.950Z,98669.98
2018-07-08T18:41:01.658Z,98676.84
2018-07-08T18:43:35.686Z,98682.75
2018-07-08T18:46:08.915Z,98688.44
2018-07-08T18:48:41.643Z,98690.89
2018-07-08T18:51:15.311Z,98696.02
2018-07-08T18:53:48.677Z,98692.52
2018-07-08T18:56:22.774Z,98696.54
2018-07-08T18:58:55.959Z,98694.08
2018-07-08T19:01:29.720Z,98700.66
2018-07-08T19:04:03.161Z,98698.30
2018-07-08T19:06:36.086Z,98700.38
2018-07-08T19:09:09.615Z,98702.22
2018-07-08T19:11:42.370Z,98707.09
2018-07-08T19:14:15.625Z,98701.56
2018-07-08T19:16:49.072Z,98704.38
2018-07-08T19:19:21.624Z,98705.28
2018-07-08T19:21:55.128Z,98709.06
2018-07-08T19:24:28.086Z,98711.37
2018-07-08T19:27:00.854Z,98718.17
2018-07-08T19:29:33.417Z,98712.75
2018-07-08T19:32:07.148Z,98726.16
2018-07-08T19:34:40.043Z,98725.95
2018-07-08T19:37:13.581Z,98731.02
2018-07-08T19:39:45.993Z,98737.61
2018-07-08T19:42:19.274Z,98750.81
2018-07-08T19:44:53.898Z,98754.57
2018-07-08T19:47:27.836Z,98747.56
2018-07-08T19:50:02.001Z,98754.05
2018-07-08T19:52:34.872Z,98756.58
2018-07-08T19:55:08.071Z,98760.34
2018-07-08T19:57:40.375Z,98761.18
2018-07-08T20:00:12.729Z,98769.88
2018-07-08T20:02:47.509Z,98768.89
2018-07-08T20:05:20.719Z,98782.26
2018-07-08T20:07:54.232Z,98781.16
2018-07-08T20:10:27.678Z,98782.05
2018-07-08T20:13:00.610Z,98788.19
2018-07-08T20:15:34.356Z,98792.05
2018-07-08T20:18:07.579Z,98781.46
2018-07-08T20:20:40.081Z,98792.63
2018-07-08T20:23:12.896Z,98798.47
2018-07-08T20:25:46.074Z,98801.55
2018-07-08T20:28:19.990Z,98807.27
2018-07-08T20:30:53.216Z,98807.90
2018-07-08T20:33:26.344Z,98807.48
2018-07-08T20:36:01.292Z,98803.06
2018-07-08T20:38:35.361Z,98806.38
2018-07-08T20:41:10.400Z,98811.64
2018-07-08T20:43:43.017Z,98803.70
2018-07-08T20:46:15.959Z,98808.81
2018-07-08T20:48:50.985Z,98809.14
2018-07-08T20:51:24.585Z,98809.36
2018-07-08T20:53:58.757Z,98815.91
2018-07-08T20:56:32.503Z,98820.97
2018-07-08T20:59:06.573Z,98826.98
2018-07-08T21:01:40.916Z,98827.00
2018-07-08T21:04:15.132Z,98830.44
2018-07-08T21:06:48.428Z,98831.23
2018-07-08T21:09:21.510Z,98833.30
2018-07-08T21:11:55.053Z,98833.45
2018-07-08T21:14:29.167Z,98836.91
2018-07-08T21:17:03.295Z,98848.56
2018-07-08T21:19:36.463Z,98855.15
2018-07-08T21:22:09.619Z,98849.95
2018-07-08T21:24:43.879Z,98850.82
2018-07-08T21:27:16.923Z,98855.69
2018-07-08T21:29:49.820Z,98864.31
2018-07-08T21:32:21.586Z,98862.64
2018-07-08T21:34:53.687Z,98865.08
2018-07-08T21:37:25.665Z,98869.50
2018-07-08T21:39:58.768Z,98872.45
2018-07-08T21:42:31.095Z,98879.98
2018-07-08T21:45:03.643Z,98879.90
2018-07-08T21:47:35.880Z,98874.67
2018-07-08T21:50:07.728Z,98868.47
2018-07-08T21:52:38.945Z,98861.86
2018-07-08T21:55:11.716Z,98860.09
2018-07-08T21:57:42.816Z,98866.03
2018-07-08T22:00:15.595Z,98865.45
2018-07-08T22:02:47.725Z,98870.11
2018-07-08T22:05:18.800Z,98867.59
2018-07-08T22:08:01.679Z,98870.59
2018-07-08T22:10:33.167Z,98858.55
2018-07-08T22:13:05.086Z,98869.36
2018-07-08T22:15:35.882Z,98864.77
2018-07-08T22:18:07.684Z,98868.02
2018-07-08T22:20:38.930Z,98868.20
2018-07-08T22:23:10.821Z,98872.56
2018-07-08T22:25:41.999Z,98876.62
2018-07-08T22:28:14.458Z,98882.77
2018-07-08T22:30:46.866Z,98891.38
2018-07-08T22:33:18.080Z,98900.00
2018-07-08T22:35:49.183Z,98897.84
2018-07-08T22:38:21.178Z,98900.20
2018-07-08T22:40:52.856Z,98898.52
2018-07-08T22:43:24.306Z,98906.48
2018-07-08T22:45:57.423Z,98914.11
2018-07-08T22:48:28.744Z,98920.43
2018-07-08T22:50:59.562Z,98912.80
2018-07-08T22:53:30.904Z,98916.27
2018-07-08T22:56:02.829Z,98925.06
2018-07-08T22:58:33.880Z,98920.09
2018-07-08T23:01:21.004Z,98923.60
2018-07-08T23:03:57.123Z,98915.44
2018-07-08T23:06:27.603Z,98915.11
2018-07-08T23:08:58.641Z,98910.95
2018-07-08T23:11:30.749Z,98911.48
2018-07-08T23:14:02.270Z,98904.84
2018-07-08T23:16:34.254Z,98908.84
2018-07-08T23:19:05.744Z,98899.20
2018-07-08T23:21:36.807Z,98905.84
2018-07-08T23:24:07.809Z,98908.67
2018-07-08T23:26:39.000Z,98900.02
2018-07-08T23:29:10.074Z,98896.87
2018-07-08T23:31:41.988Z,98900.02
2018-07-08T23:34:14.080Z,98888.43
2018-07-08T23:36:44.980Z,98888.25
2018-07-08T23:39:17.195Z,98888.25
2018-07-08T23:41:48.236Z,98884.27
2018-07-08T23:44:20.549Z,98888.99
2018-07-08T23:46:52.361Z,98886.77
2018-07-08T23:49:24.329Z,98892.92
2018-07-08T23:51:55.464Z,98889.20
2018-07-08T23:54:26.501Z,98894.39
2018-07-08T23:56:57.433Z,98887.08
2018-07-08T23:59:28.585Z,98880.11
